createdAt,value
2022-08-10T00:00:24.030Z,71.60
2022-08-10T00:03:12.306Z,71.30
2022-08-10T00:06:00.683Z,72.36
2022-08-10T00:08:50.413Z,73.15
2022-08-10T00:11:38.862Z,73.22
2022-08-10T00:14:27.179Z,72.82
2022-08-10T00:17:15.699Z,73.49
2022-08-10T00:20:08.510Z,73.35
2022-08-10T00:22:58.071Z,73.25
2022-08-10T00:25:47.909Z,73.28
2022-08-10T00:28:36.366Z,72.59
2022-08-10T00:31:24.758Z,71.39
2022-08-10T00:34:13.113Z,71.17
2022-08-10T00:37:02.082Z,70.61
2022-08-10T00:39:50.536Z,69.81
2022-08-10T00:42:40.374Z,69.87
2022-08-10T00:45:28.856Z,69.95
2022-08-10T00:48:17.217Z,69.76
2022-08-10T00:51:06.586Z,69.96
2022-08-10T00:53:55.038Z,70.04
2022-08-10T00:57:16.651Z,70.36
2022-08-10T00:59:58.710Z,70.37
2022-08-10T01:02:48.296Z,70.92
2022-08-10T01:05:51.223Z,72.14
2022-08-10T01:08:48.774Z,72.50
2022-08-10T01:12:38.895Z,73.10
2022-08-10T01:15:08.675Z,72.74
2022-08-10T01:18:02.887Z,72.68
2022-08-10T01:21:15.132Z,72.95
2022-08-10T01:24:16.817Z,71.38
2022-08-10T01:27:37.209Z,70.41
2022-08-10T01:30:31.467Z,70.27
2022-08-10T01:33:31.993Z,70.10
2022-08-10T01:36:40.831Z,70.76
2022-08-10T01:39:34.098Z,72.18
2022-08-10T01:42:24.730Z,71.45
2022-08-10T01:45:17.032Z,71.17
2022-08-10T01:48:27.936Z,71.66
2022-08-10T01:51:22.106Z,71.01
2022-08-10T01:54:13.521Z,71.28
2022-08-10T01:57:04.326Z,71.18
2022-08-10T02:00:02.195Z,71.42
2022-08-10T02:02:55.405Z,71.96
2022-08-10T02:05:48.530Z,71.59
2022-08-10T02:08:38.306Z,71.96
2022-08-10T02:11:28.960Z,71.91
2022-08-10T02:14:40.876Z,72.20
2022-08-10T02:17:57.089Z,72.12
2022-08-10T02:20:49.049Z,72.52
2022-08-10T02:23:40.685Z,72.73
2022-08-10T02:26:30.488Z,74.71
2022-08-10T02:29:19.861Z,75.24
2022-08-10T02:32:10.570Z,76.00
2022-08-10T02:35:00.385Z,77.01
2022-08-10T02:37:56.340Z,77.79
2022-08-10T02:42:18.259Z,76.80
2022-08-10T02:45:22.444Z,76.30
2022-08-10T02:47:23.712Z,78.20
2022-08-10T02:50:20.368Z,78.62
2022-08-10T02:53:56.275Z,79.34
2022-08-10T02:56:26.213Z,78.63
2022-08-10T02:59:21.810Z,80.14
2022-08-10T03:02:15.575Z,77.73
2022-08-10T03:05:08.031Z,77.44
2022-08-10T03:08:01.390Z,76.76
2022-08-10T03:10:52.770Z,78.45
2022-08-10T03:13:42.726Z,79.93
2022-08-10T03:16:34.404Z,78.85
2022-08-10T03:20:33.864Z,77.38
2022-08-10T03:22:35.703Z,77.74
2022-08-10T03:25:26.918Z,77.82
2022-08-10T03:28:20.412Z,78.21
2022-08-10T03:31:10.158Z,80.21
2022-08-10T03:34:01.681Z,81.55
2022-08-10T03:36:50.373Z,83.18
2022-08-10T03:39:38.997Z,81.72
2022-08-10T03:42:29.144Z,80.71
2022-08-10T03:45:19.515Z,82.18
2022-08-10T03:48:09.697Z,82.12
2022-08-10T03:50:59.741Z,81.94
2022-08-10T03:54:04.188Z,81.08
2022-08-10T03:56:55.908Z,79.17
2022-08-10T03:59:44.679Z,78.68
2022-08-10T04:02:45.457Z,78.78
2022-08-10T04:05:38.080Z,79.38
2022-08-10T04:08:27.587Z,79.55
2022-08-10T04:11:16.010Z,79.08
2022-08-10T04:14:05.007Z,78.32
2022-08-10T04:16:53.473Z,79.04
2022-08-10T04:19:47.104Z,79.79
2022-08-10T04:22:37.801Z,81.41
2022-08-10T04:25:27.258Z,80.42
2022-08-10T04:28:16.561Z,80.28
2022-08-10T04:31:07.533Z,79.72
2022-08-10T04:33:59.086Z,79.66
2022-08-10T04:37:04.327Z,79.44
2022-08-10T04:39:56.440Z,79.01
2022-08-10T04:42:45.448Z,78.77
2022-08-10T04:45:48.536Z,78.52
2022-08-10T04:48:59.751Z,78.58
2022-08-10T04:51:48.358Z,79.52
2022-08-10T04:54:38.153Z,78.81
2022-08-10T04:57:27.966Z,78.08
2022-08-10T05:00:19.062Z,77.82
2022-08-10T05:03:07.827Z,77.66
2022-08-10T05:05:56.273Z,77.11
2022-08-10T05:08:45.577Z,77.34
2022-08-10T05:11:35.781Z,76.88
2022-08-10T05:14:24.282Z,76.09
2022-08-10T05:17:12.969Z,76.13
2022-08-10T05:20:06.060Z,77.30
2022-08-10T05:22:55.558Z,77.45
2022-08-10T05:25:44.021Z,78.69
2022-08-10T05:28:35.238Z,78.54
2022-08-10T05:31:24.037Z,79.13
2022-08-10T05:34:20.618Z,77.81
2022-08-10T05:38:10.406Z,77.18
2022-08-10T05:40:20.179Z,74.99
2022-08-10T05:43:09.123Z,75.43
2022-08-10T05:46:17.477Z,74.47
2022-08-10T05:49:07.589Z,74.81
2022-08-10T05:51:56.011Z,73.43
2022-08-10T05:54:44.753Z,73.81
2022-08-10T05:57:36.333Z,72.37
2022-08-10T06:00:40.643Z,71.83
2022-08-10T06:03:37.386Z,72.07
2022-08-10T06:06:28.505Z,71.61
2022-08-10T06:09:18.133Z,70.66
2022-08-10T06:12:27.576Z,71.89
2022-08-10T06:15:21.740Z,69.51
2022-08-10T06:18:25.986Z,69.15
2022-08-10T06:21:17.174Z,68.00
2022-08-10T06:24:09.354Z,68.47
2022-08-10T06:26:57.925Z,68.47
2022-08-10T06:29:47.769Z,67.56
2022-08-10T06:32:36.703Z,66.39
2022-08-10T06:35:29.230Z,65.76
2022-08-10T06:38:20.287Z,65.24
2022-08-10T06:41:19.872Z,67.31
2022-08-10T06:44:12.465Z,66.31
2022-08-10T06:47:04.145Z,65.10
2022-08-10T06:49:59.525Z,64.10
2022-08-10T06:52:51.336Z,63.65
2022-08-10T06:55:55.057Z,63.62
2022-08-10T06:58:50.581Z,62.53
2022-08-10T07:01:41.258Z,62.53
2022-08-10T07:04:45.788Z,61.96
2022-08-10T07:07:39.959Z,61.29
2022-08-10T07:10:45.590Z,60.91
2022-08-10T07:14:15.567Z,60.80
2022-08-10T07:16:48.765Z,60.36
2022-08-10T07:19:50.081Z,60.28
2022-08-10T07:23:52.024Z,59.98
2022-08-10T07:25:58.890Z,60.33
2022-08-10T07:28:50.308Z,59.65
2022-08-10T07:31:55.528Z,59.80
2022-08-10T07:34:49.212Z,59.40
2022-08-10T07:37:41.131Z,59.83
2022-08-10T07:40:31.101Z,59.95
2022-08-10T07:43:23.023Z,59.43
2022-08-10T07:46:16.167Z,59.06
2022-08-10T07:49:19.560Z,58.28
2022-08-10T07:52:10.978Z,58.29
2022-08-10T07:55:01.418Z,58.44
2022-08-10T07:57:53.343Z,57.79
2022-08-10T08:00:42.882Z,57.94
2022-08-10T08:03:34.898Z,56.52
2022-08-10T08:06:24.210Z,55.50
2022-08-10T08:09:12.808Z,54.89
2022-08-10T08:12:03.637Z,55.18
2022-08-10T08:14:54.055Z,54.09
2022-08-10T08:17:44.103Z,54.65
2022-08-10T08:20:35.254Z,54.18
2022-08-10T08:24:10.319Z,55.67
2022-08-10T08:26:38.594Z,53.28
2022-08-10T08:29:27.814Z,53.01
2022-08-10T08:32:19.195Z,54.21
2022-08-10T08:35:10.495Z,53.04
2022-08-10T08:38:29.909Z,52.34
2022-08-10T08:41:27.252Z,51.74
2022-08-10T08:44:23.615Z,52.12
2022-08-10T08:48:03.925Z,52.05
2022-08-10T08:50:57.977Z,53.11
2022-08-10T08:54:04.169Z,54.43
2022-08-10T08:57:04.725Z,53.86
2022-08-10T09:00:01.930Z,52.71
2022-08-10T09:03:08.965Z,50.83
2022-08-10T09:06:08.991Z,51.60
2022-08-10T09:09:31.991Z,53.22
2022-08-10T09:12:33.977Z,52.13
2022-08-10T09:15:40.402Z,51.01
2022-08-10T09:18:40.260Z,50.25
2022-08-10T09:21:43.346Z,49.27
2022-08-10T09:24:55.318Z,49.21
2022-08-10T09:27:49.378Z,50.61
2022-08-10T09:31:03.578Z,50.37
2022-08-10T09:36:26.169Z,49.47
2022-08-10T09:37:39.998Z,49.28
2022-08-10T09:40:59.627Z,48.27
2022-08-10T09:44:02.613Z,48.32
2022-08-10T09:47:00.440Z,47.04
2022-08-10T09:50:04.943Z,47.38
2022-08-10T09:53:06.423Z,47.32
2022-08-10T09:56:19.383Z,47.72
2022-08-10T09:59:59.391Z,46.88
2022-08-10T10:02:36.276Z,50.15
2022-08-10T10:05:38.246Z,50.21
2022-08-10T10:08:31.832Z,49.92
2022-08-10T10:11:27.812Z,52.36
2022-08-10T10:14:35.647Z,50.28
2022-08-10T10:17:35.947Z,49.92
2022-08-10T10:20:29.661Z,49.94
2022-08-10T10:23:26.049Z,49.85
2022-08-10T10:26:21.379Z,49.99
2022-08-10T10:29:55.620Z,48.52
2022-08-10T10:32:37.378Z,47.74
2022-08-10T10:35:32.156Z,47.88
2022-08-10T10:38:24.287Z,48.07
2022-08-10T10:41:21.280Z,47.13
2022-08-10T10:44:38.964Z,49.49
2022-08-10T10:47:56.844Z,47.64
2022-08-10T10:50:59.864Z,47.44
2022-08-10T10:54:03.330Z,47.68
2022-08-10T10:56:58.214Z,45.76
2022-08-10T10:59:57.838Z,44.61
2022-08-10T11:03:00.948Z,45.34
2022-08-10T11:05:56.242Z,45.06
2022-08-10T11:08:52.199Z,47.00
2022-08-10T11:12:02.037Z,46.97
2022-08-10T11:14:59.822Z,47.63
2022-08-10T11:17:56.434Z,47.05
2022-08-10T11:20:52.872Z,48.24
2022-08-10T11:24:47.704Z,47.68
2022-08-10T11:27:03.595Z,46.15
2022-08-10T11:30:01.940Z,45.81
2022-08-10T11:33:04.941Z,45.42
2022-08-10T11:35:57.769Z,45.29
2022-08-10T11:39:13.484Z,45.31
2022-08-10T11:42:23.205Z,44.15
2022-08-10T11:45:23.278Z,43.49
2022-08-10T11:48:54.227Z,43.56
2022-08-10T11:51:35.721Z,43.03
2022-08-10T11:54:30.667Z,43.33
2022-08-10T11:57:21.115Z,42.96
2022-08-10T12:00:10.027Z,45.53
2022-08-10T12:03:04.900Z,46.44
2022-08-10T12:05:56.153Z,45.97
2022-08-10T12:10:10.474Z,45.54
2022-08-10T12:11:56.420Z,44.83
2022-08-10T12:14:51.661Z,44.09
2022-08-10T12:17:46.374Z,41.89
2022-08-10T12:20:38.691Z,41.30
2022-08-10T12:23:39.197Z,43.80
2022-08-10T12:26:33.741Z,43.42
2022-08-10T12:29:28.389Z,41.73
2022-08-10T12:32:25.905Z,42.86
2022-08-10T12:35:23.709Z,42.40
2022-08-10T12:38:22.274Z,40.38
2022-08-10T12:41:18.527Z,38.66
2022-08-10T12:44:41.040Z,37.61
2022-08-10T12:47:41.969Z,36.51
2022-08-10T12:50:40.598Z,36.24
2022-08-10T12:53:42.260Z,37.63
2022-08-10T12:56:36.842Z,37.08
2022-08-10T12:59:29.749Z,37.09
2022-08-10T13:02:22.776Z,38.56
2022-08-10T13:05:13.669Z,41.46
2022-08-10T13:08:26.571Z,40.19
2022-08-10T13:12:34.239Z,38.25
2022-08-10T13:14:33.591Z,37.42
2022-08-10T13:17:32.304Z,36.53
2022-08-10T13:20:29.602Z,36.67
2022-08-10T13:23:23.434Z,39.00
2022-08-10T13:26:15.728Z,43.29
2022-08-10T13:29:13.300Z,44.68
2022-08-10T13:32:09.823Z,44.33
2022-08-10T13:35:03.740Z,45.07
2022-08-10T13:37:55.761Z,44.13
2022-08-10T13:40:49.944Z,43.71
2022-08-10T13:43:39.234Z,44.53
2022-08-10T13:46:29.430Z,43.09
2022-08-10T13:49:19.264Z,40.88
2022-08-10T13:52:13.784Z,41.02
2022-08-10T13:55:03.271Z,40.47
2022-08-10T13:57:53.830Z,40.59
2022-08-10T14:00:47.447Z,40.51
2022-08-10T14:03:40.010Z,41.62
2022-08-10T14:06:30.089Z,42.02
2022-08-10T14:09:24.011Z,40.96
2022-08-10T14:12:13.969Z,40.70
2022-08-10T14:15:04.643Z,39.39
2022-08-10T14:17:57.356Z,41.17
2022-08-10T14:20:49.325Z,39.94
2022-08-10T14:23:41.806Z,39.41
2022-08-10T14:26:31.418Z,40.89
2022-08-10T14:29:23.298Z,41.38
2022-08-10T14:32:14.086Z,40.92
2022-08-10T14:36:18.537Z,41.12
2022-08-10T14:38:22.535Z,42.84
2022-08-10T14:42:01.748Z,42.89
2022-08-10T14:44:29.047Z,41.47
2022-08-10T14:47:53.359Z,42.12
2022-08-10T14:50:33.485Z,41.33
2022-08-10T14:53:27.321Z,40.93
2022-08-10T14:56:19.465Z,40.74
2022-08-10T14:59:09.851Z,39.75
2022-08-10T15:02:38.788Z,39.42
2022-08-10T15:05:10.897Z,40.03
2022-08-10T15:08:00.712Z,39.16
2022-08-10T15:10:57.686Z,40.82
2022-08-10T15:14:14.953Z,38.17
2022-08-10T15:16:58.593Z,36.39
2022-08-10T15:20:04.214Z,35.95
2022-08-10T15:23:02.163Z,36.18
2022-08-10T15:25:57.978Z,36.73
2022-08-10T15:29:21.950Z,37.69
2022-08-10T15:32:17.637Z,35.66
2022-08-10T15:35:25.965Z,35.47
2022-08-10T15:38:19.014Z,35.68
2022-08-10T15:41:12.266Z,36.46
2022-08-10T15:44:00.789Z,34.71
2022-08-10T15:46:51.521Z,34.95
2022-08-10T15:49:48.998Z,34.97
2022-08-10T15:53:01.935Z,36.02
2022-08-10T15:55:54.027Z,37.21
2022-08-10T15:58:49.049Z,34.90
2022-08-10T16:02:14.354Z,37.80
2022-08-10T16:04:53.385Z,37.19
2022-08-10T16:07:49.076Z,37.75
2022-08-10T16:10:45.868Z,38.03
2022-08-10T16:13:50.702Z,37.76
2022-08-10T16:16:55.700Z,36.95
2022-08-10T16:19:49.724Z,36.36
2022-08-10T16:22:38.201Z,36.15
2022-08-10T16:25:51.273Z,37.09
2022-08-10T16:28:40.125Z,36.88
2022-08-10T16:31:32.491Z,37.40
2022-08-10T16:34:24.811Z,39.23
2022-08-10T16:37:15.937Z,40.15
2022-08-10T16:40:07.293Z,40.75
2022-08-10T16:42:57.261Z,41.30
2022-08-10T16:45:48.905Z,40.95
2022-08-10T16:48:50.063Z,40.25
2022-08-10T16:51:42.347Z,39.53
2022-08-10T16:54:32.396Z,39.65
2022-08-10T16:57:27.376Z,39.70
2022-08-10T17:00:21.548Z,38.30
2022-08-10T17:04:04.838Z,38.28
2022-08-10T17:06:27.919Z,39.31
2022-08-10T17:09:19.824Z,39.42
2022-08-10T17:12:11.704Z,39.89
2022-08-10T17:15:10.285Z,39.18
2022-08-10T17:18:02.418Z,40.12
2022-08-10T17:20:52.436Z,39.18
2022-08-10T17:23:47.008Z,39.25
2022-08-10T17:26:38.979Z,41.08
2022-08-10T17:29:59.010Z,39.73
2022-08-10T17:32:45.191Z,42.47
2022-08-10T17:35:37.399Z,42.19
2022-08-10T17:38:30.225Z,43.66
2022-08-10T17:41:35.144Z,43.53
2022-08-10T17:44:25.931Z,43.53
2022-08-10T17:47:14.747Z,43.83
2022-08-10T17:50:03.942Z,43.55
2022-08-10T17:52:55.272Z,43.94
2022-08-10T17:55:47.166Z,43.87
2022-08-10T17:58:38.329Z,44.26
2022-08-10T18:01:40.586Z,45.16
2022-08-10T18:04:42.601Z,46.52
2022-08-10T18:07:35.739Z,47.24
2022-08-10T18:10:24.798Z,46.40
2022-08-10T18:13:17.506Z,45.99
2022-08-10T18:16:07.303Z,46.34
2022-08-10T18:19:00.980Z,47.29
2022-08-10T18:21:50.874Z,47.61
2022-08-10T18:24:40.573Z,48.21
2022-08-10T18:27:46.588Z,48.20
2022-08-10T18:30:48.251Z,49.21
2022-08-10T18:33:45.404Z,49.28
2022-08-10T18:36:41.370Z,49.50
2022-08-10T18:39:35.204Z,49.62
2022-08-10T18:42:32.478Z,49.59
2022-08-10T18:45:24.148Z,50.09
2022-08-10T18:48:17.912Z,51.49
2022-08-10T18:51:07.799Z,51.94
2022-08-10T18:54:05.604Z,52.87
2022-08-10T18:56:58.003Z,53.14
2022-08-10T19:00:08.848Z,53.64
2022-08-10T19:03:11.479Z,53.81
2022-08-10T19:06:34.036Z,53.70
2022-08-10T19:09:46.679Z,54.79
2022-08-10T19:12:53.113Z,54.68
2022-08-10T19:15:52.696Z,54.21
2022-08-10T19:18:53.239Z,53.59
2022-08-10T19:21:46.478Z,53.68
2022-08-10T19:25:02.581Z,53.57
2022-08-10T19:28:02.928Z,53.67
2022-08-10T19:30:55.400Z,54.15
2022-08-10T19:33:52.665Z,54.33
2022-08-10T19:37:10.109Z,54.09
2022-08-10T19:40:15.455Z,54.33
2022-08-10T19:43:09.537Z,55.44
2022-08-10T19:46:05.665Z,55.26
2022-08-10T19:48:59.848Z,55.27
2022-08-10T19:51:56.985Z,56.96
2022-08-10T19:54:55.719Z,56.13
2022-08-10T19:57:53.201Z,56.08
2022-08-10T20:00:50.917Z,56.57
2022-08-10T20:03:45.817Z,56.06
2022-08-10T20:06:43.609Z,57.06
2022-08-10T20:09:42.677Z,57.33
2022-08-10T20:12:38.369Z,58.25
2022-08-10T20:15:42.301Z,58.86
2022-08-10T20:18:37.503Z,58.38
2022-08-10T20:21:29.897Z,58.26
2022-08-10T20:24:27.789Z,58.82
2022-08-10T20:28:00.003Z,58.89
2022-08-10T20:30:35.890Z,59.23
2022-08-10T20:33:29.379Z,59.75
2022-08-10T20:36:26.422Z,60.57
2022-08-10T20:39:19.532Z,61.68
2022-08-10T20:42:12.971Z,61.25
2022-08-10T20:45:05.632Z,60.53
2022-08-10T20:48:00.783Z,60.92
2022-08-10T20:50:54.627Z,60.47
2022-08-10T20:53:48.011Z,61.08
2022-08-10T20:56:43.604Z,61.23
2022-08-10T21:00:04.233Z,61.23
2022-08-10T21:03:22.017Z,61.92
2022-08-10T21:06:54.588Z,61.82
2022-08-10T21:09:53.796Z,61.40
2022-08-10T21:13:05.621Z,60.87
2022-08-10T21:16:04.650Z,61.18
2022-08-10T21:19:15.671Z,61.17
2022-08-10T21:22:15.650Z,61.72
2022-08-10T21:25:07.638Z,62.15
2022-08-10T21:28:10.909Z,61.59
2022-08-10T21:31:21.784Z,62.44
2022-08-10T21:34:31.826Z,62.85
2022-08-10T21:37:40.067Z,62.54
2022-08-10T21:41:16.996Z,62.28
2022-08-10T21:44:25.593Z,62.68
2022-08-10T21:48:07.507Z,61.86
2022-08-10T21:51:27.125Z,62.57
2022-08-10T21:54:51.801Z,62.38
2022-08-10T21:58:07.734Z,61.86
2022-08-10T22:01:17.698Z,62.43
2022-08-10T22:04:24.577Z,62.93
2022-08-10T22:07:36.693Z,61.94
2022-08-10T22:10:46.807Z,62.10
2022-08-10T22:14:01.605Z,62.72
2022-08-10T22:18:03.462Z,63.44
2022-08-10T22:20:45.585Z,64.34
2022-08-10T22:24:16.668Z,64.81
2022-08-10T22:27:47.574Z,64.73
2022-08-10T22:34:59.561Z,64.35
2022-08-10T22:38:14.302Z,64.98
2022-08-10T22:41:32.158Z,65.06
2022-08-10T22:44:40.403Z,64.95
2022-08-10T22:47:49.408Z,65.56
2022-08-10T22:50:38.123Z,65.55
2022-08-10T22:53:51.761Z,66.32
2022-08-10T22:56:59.327Z,66.67
2022-08-10T22:59:49.499Z,66.42
2022-08-10T23:02:40.005Z,66.24
2022-08-10T23:05:33.808Z,65.41
2022-08-10T23:08:30.696Z,66.25
2022-08-10T23:11:23.527Z,66.52
2022-08-10T23:14:16.063Z,66.26
2022-08-10T23:18:00.631Z,65.93
2022-08-10T23:20:38.808Z,64.89
2022-08-10T23:23:31.232Z,64.67
2022-08-10T23:26:27.189Z,65.63
2022-08-10T23:29:17.360Z,66.19
2022-08-10T23:32:09.324Z,66.64
2022-08-10T23:36:31.003Z,66.54
2022-08-10T23:38:10.357Z,66.15
2022-08-10T23:41:03.797Z,65.63
2022-08-10T23:44:04.141Z,65.08
2022-08-10T23:46:55.092Z,65.60
2022-08-10T23:49:44.437Z,65.95
2022-08-10T23:52:35.106Z,67.23
2022-08-10T23:55:25.863Z,68.17
2022-08-10T23:58:30.040Z,69.11
